KFAT/FAT METAR and TAF weather

Enter ICAO airport designator
Station Type Date Time Source
KFAT METAR 2021/08/04 18:53 UTC NOAA

KFAT 041853Z 29003KT 10SM FEW070 35/09 A2988 RMK AO2 SLP115 MTNS OBSC FU HZ DSNT N-E-S T03500094


Station Type Date Time Source
KFAT Decoded METAR 2021/08/04 18:53 UTC NOAA

FRESNO AIR TERMINAL, CA, United States (KFAT) 36-47N 119-43W 104M
Aug 04, 2021 - 02:53 PM EDT / 2021.08.04 1853 UTC
Wind: from the WNW (290 degrees) at 3 MPH (3 KT):0
Visibility: 10 mile(s):0
Sky conditions: mostly clear
Temperature: 95.0 F (35.0 C)
Dew Point: 48.9 F (9.4 C)
Relative Humidity: 20%
Pressure (altimeter): 29.88 in. Hg (1011 hPa)
ob: KFAT 041853Z 29003KT 10SM FEW070 35/09 A2988 RMK AO2 SLP115 MTNS OBSC FU HZ DSNT N-E-S T03500094
cycle: 19

Station Type Date Time Source
KFAT TAF 2021/08/04 18:27 UTC NOAA

TAF KFAT 041723Z 0418/0518 VRB06KT P6SM SKC
FM050000 30014KT P6SM SKC
FM051400 31008KT P6SM SKC

Example: see airport list